sensor_id;sensor_type;location;lat;lon;timestamp;P1;durP1;ratioP1;P2;durP2;ratioP2
16522;SDS011;19889;52.546;13.348;2022-10-16T00:02:23;419.40;;;260.43;;
16522;SDS011;19889;52.546;13.348;2022-10-16T00:04:51;418.70;;;248.70;;
16522;SDS011;19889;52.546;13.348;2022-10-16T00:07:19;419.03;;;260.33;;
16522;SDS011;19889;52.546;13.348;2022-10-16T00:09:46;419.40;;;247.10;;
16522;SDS011;19889;52.546;13.348;2022-10-16T00:12:13;421.73;;;271.50;;
16522;SDS011;19889;52.546;13.348;2022-10-16T00:14:40;425.37;;;281.00;;
16522;SDS011;19889;52.546;13.348;2022-10-16T00:17:08;424.60;;;258.47;;
16522;SDS011;19889;52.546;13.348;2022-10-16T00:19:35;423.37;;;267.03;;
16522;SDS011;19889;52.546;13.348;2022-10-16T00:22:03;419.77;;;259.57;;
16522;SDS011;19889;52.546;13.348;2022-10-16T00:24:30;419.47;;;260.53;;
16522;SDS011;19889;52.546;13.348;2022-10-16T00:26:57;417.90;;;246.33;;
16522;SDS011;19889;52.546;13.348;2022-10-16T00:29:23;417.00;;;244.83;;
16522;SDS011;19889;52.546;13.348;2022-10-16T00:31:50;419.13;;;256.07;;
16522;SDS011;19889;52.546;13.348;2022-10-16T00:34:17;412.50;;;246.10;;
16522;SDS011;19889;52.546;13.348;2022-10-16T00:36:44;420.33;;;269.77;;
16522;SDS011;19889;52.546;13.348;2022-10-16T00:39:12;420.00;;;255.40;;
16522;SDS011;19889;52.546;13.348;2022-10-16T00:41:38;419.57;;;256.37;;
16522;SDS011;19889;52.546;13.348;2022-10-16T00:47:06;422.63;;;257.73;;
16522;SDS011;19889;52.546;13.348;2022-10-16T00:49:35;414.20;;;236.90;;
16522;SDS011;19889;52.546;13.348;2022-10-16T00:52:02;419.30;;;247.77;;
16522;SDS011;19889;52.546;13.348;2022-10-16T00:54:31;418.43;;;250.23;;
16522;SDS011;19889;52.546;13.348;2022-10-16T00:56:59;424.23;;;274.23;;
16522;SDS011;19889;52.546;13.348;2022-10-16T00:59:28;417.60;;;248.90;;
16522;SDS011;19889;52.546;13.348;2022-10-16T01:01:56;417.33;;;260.20;;
16522;SDS011;19889;52.546;13.348;2022-10-16T01:04:25;419.53;;;265.07;;
16522;SDS011;19889;52.546;13.348;2022-10-16T01:06:55;419.50;;;265.40;;
16522;SDS011;19889;52.546;13.348;2022-10-16T01:09:34;457.57;;;300.93;;
16522;SDS011;19889;52.546;13.348;2022-10-16T01:12:09;417.33;;;264.47;;
16522;SDS011;19889;52.546;13.348;2022-10-16T01:14:43;413.13;;;236.23;;
16522;SDS011;19889;52.546;13.348;2022-10-16T01:17:15;421.93;;;264.10;;
16522;SDS011;19889;52.546;13.348;2022-10-16T01:19:57;423.30;;;268.07;;
16522;SDS011;19889;52.546;13.348;2022-10-16T01:22:35;422.07;;;254.60;;
16522;SDS011;19889;52.546;13.348;2022-10-16T01:25:08;417.27;;;253.53;;
16522;SDS011;19889;52.546;13.348;2022-10-16T01:27:42;414.33;;;245.33;;
16522;SDS011;19889;52.546;13.348;2022-10-16T01:30:13;420.10;;;263.70;;
16522;SDS011;19889;52.546;13.348;2022-10-16T01:32:45;427.57;;;285.63;;
16522;SDS011;19889;52.546;13.348;2022-10-16T01:35:17;416.37;;;251.47;;
16522;SDS011;19889;52.546;13.348;2022-10-16T01:37:48;421.23;;;256.47;;
16522;SDS011;19889;52.546;13.348;2022-10-16T01:40:19;420.80;;;269.30;;
16522;SDS011;19889;52.546;13.348;2022-10-16T01:42:52;420.50;;;260.03;;
16522;SDS011;19889;52.546;13.348;2022-10-16T01:45:22;415.13;;;251.07;;
16522;SDS011;19889;52.546;13.348;2022-10-16T01:47:49;419.87;;;265.17;;
16522;SDS011;19889;52.546;13.348;2022-10-16T01:50:18;412.77;;;235.83;;
16522;SDS011;19889;52.546;13.348;2022-10-16T01:52:48;417.47;;;252.70;;
16522;SDS011;19889;52.546;13.348;2022-10-16T01:55:18;416.77;;;239.57;;
16522;SDS011;19889;52.546;13.348;2022-10-16T01:57:55;417.30;;;257.63;;
16522;SDS011;19889;52.546;13.348;2022-10-16T02:00:24;415.97;;;250.50;;
16522;SDS011;19889;52.546;13.348;2022-10-16T02:02:53;417.50;;;244.77;;
16522;SDS011;19889;52.546;13.348;2022-10-16T02:05:22;415.00;;;228.03;;
16522;SDS011;19889;52.546;13.348;2022-10-16T02:07:52;423.53;;;271.97;;
16522;SDS011;19889;52.546;13.348;2022-10-16T02:10:19;417.53;;;247.70;;
16522;SDS011;19889;52.546;13.348;2022-10-16T02:12:48;417.77;;;256.00;;
16522;SDS011;19889;52.546;13.348;2022-10-16T02:15:21;419.43;;;261.30;;
16522;SDS011;19889;52.546;13.348;2022-10-16T02:17:48;417.93;;;243.10;;
16522;SDS011;19889;52.546;13.348;2022-10-16T02:20:15;416.57;;;246.93;;
16522;SDS011;19889;52.546;13.348;2022-10-16T02:22:42;419.70;;;254.67;;
16522;SDS011;19889;52.546;13.348;2022-10-16T02:25:13;422.03;;;249.60;;
16522;SDS011;19889;52.546;13.348;2022-10-16T02:27:47;421.30;;;247.10;;
16522;SDS011;19889;52.546;13.348;2022-10-16T02:30:22;415.23;;;248.20;;
16522;SDS011;19889;52.546;13.348;2022-10-16T02:32:53;423.27;;;264.57;;
16522;SDS011;19889;52.546;13.348;2022-10-16T02:35:21;412.47;;;226.73;;
16522;SDS011;19889;52.546;13.348;2022-10-16T02:37:50;412.77;;;225.50;;
16522;SDS011;19889;52.546;13.348;2022-10-16T02:40:18;415.90;;;235.77;;
16522;SDS011;19889;52.546;13.348;2022-10-16T02:42:49;422.07;;;253.73;;
16522;SDS011;19889;52.546;13.348;2022-10-16T02:45:17;422.13;;;263.23;;
16522;SDS011;19889;52.546;13.348;2022-10-16T02:47:45;425.30;;;259.13;;
16522;SDS011;19889;52.546;13.348;2022-10-16T02:50:12;416.30;;;242.13;;
16522;SDS011;19889;52.546;13.348;2022-10-16T02:52:39;421.43;;;267.27;;
16522;SDS011;19889;52.546;13.348;2022-10-16T02:55:06;417.40;;;249.50;;
16522;SDS011;19889;52.546;13.348;2022-10-16T02:57:33;413.03;;;235.97;;
16522;SDS011;19889;52.546;13.348;2022-10-16T03:00:02;414.20;;;244.17;;
16522;SDS011;19889;52.546;13.348;2022-10-16T03:02:29;418.67;;;253.57;;
16522;SDS011;19889;52.546;13.348;2022-10-16T03:04:57;417.87;;;247.50;;
16522;SDS011;19889;52.546;13.348;2022-10-16T03:07:24;413.03;;;237.87;;
16522;SDS011;19889;52.546;13.348;2022-10-16T03:09:51;418.23;;;257.70;;
16522;SDS011;19889;52.546;13.348;2022-10-16T03:12:17;415.80;;;256.80;;
16522;SDS011;19889;52.546;13.348;2022-10-16T03:14:44;410.93;;;232.17;;
16522;SDS011;19889;52.546;13.348;2022-10-16T03:17:11;416.40;;;240.47;;
16522;SDS011;19889;52.546;13.348;2022-10-16T03:19:38;416.80;;;251.77;;
16522;SDS011;19889;52.546;13.348;2022-10-16T03:22:06;415.90;;;237.63;;
16522;SDS011;19889;52.546;13.348;2022-10-16T03:24:33;416.47;;;245.73;;
16522;SDS011;19889;52.546;13.348;2022-10-16T03:27:00;423.53;;;245.80;;
16522;SDS011;19889;52.546;13.348;2022-10-16T03:29:27;419.40;;;239.97;;
16522;SDS011;19889;52.546;13.348;2022-10-16T03:31:54;421.77;;;262.03;;
16522;SDS011;19889;52.546;13.348;2022-10-16T03:34:21;419.50;;;257.03;;
16522;SDS011;19889;52.546;13.348;2022-10-16T03:36:48;425.70;;;251.90;;
16522;SDS011;19889;52.546;13.348;2022-10-16T03:39:16;413.23;;;234.07;;
16522;SDS011;19889;52.546;13.348;2022-10-16T03:41:43;415.37;;;234.40;;
16522;SDS011;19889;52.546;13.348;2022-10-16T03:44:11;414.47;;;252.70;;
16522;SDS011;19889;52.546;13.348;2022-10-16T03:46:38;426.03;;;263.60;;
16522;SDS011;19889;52.546;13.348;2022-10-16T03:49:05;420.43;;;256.90;;
16522;SDS011;19889;52.546;13.348;2022-10-16T03:51:32;417.63;;;238.17;;
16522;SDS011;19889;52.546;13.348;2022-10-16T03:53:59;419.07;;;243.87;;
16522;SDS011;19889;52.546;13.348;2022-10-16T03:56:27;422.33;;;271.07;;
16522;SDS011;19889;52.546;13.348;2022-10-16T03:58:54;418.43;;;244.97;;
16522;SDS011;19889;52.546;13.348;2022-10-16T04:01:20;416.30;;;247.17;;
16522;SDS011;19889;52.546;13.348;2022-10-16T04:03:47;423.83;;;257.77;;
16522;SDS011;19889;52.546;13.348;2022-10-16T04:06:14;406.73;;;221.10;;
16522;SDS011;19889;52.546;13.348;2022-10-16T04:08:42;413.07;;;239.67;;
16522;SDS011;19889;52.546;13.348;2022-10-16T04:11:09;418.57;;;254.77;;
16522;SDS011;19889;52.546;13.348;2022-10-16T04:13:37;415.57;;;240.37;;
16522;SDS011;19889;52.546;13.348;2022-10-16T04:16:03;414.97;;;238.60;;
16522;SDS011;19889;52.546;13.348;2022-10-16T04:18:30;421.27;;;259.97;;
16522;SDS011;19889;52.546;13.348;2022-10-16T04:21:01;421.27;;;261.57;;
16522;SDS011;19889;52.546;13.348;2022-10-16T04:23:29;416.47;;;235.47;;
16522;SDS011;19889;52.546;13.348;2022-10-16T04:25:55;419.10;;;237.80;;
16522;SDS011;19889;52.546;13.348;2022-10-16T04:28:22;418.47;;;247.73;;
16522;SDS011;19889;52.546;13.348;2022-10-16T04:30:50;420.93;;;258.07;;
16522;SDS011;19889;52.546;13.348;2022-10-16T04:33:17;423.07;;;249.60;;
16522;SDS011;19889;52.546;13.348;2022-10-16T04:35:44;414.63;;;234.57;;
16522;SDS011;19889;52.546;13.348;2022-10-16T04:38:10;412.33;;;240.97;;
16522;SDS011;19889;52.546;13.348;2022-10-16T04:40:37;418.57;;;248.47;;
16522;SDS011;19889;52.546;13.348;2022-10-16T04:43:04;415.87;;;236.77;;
16522;SDS011;19889;52.546;13.348;2022-10-16T04:45:32;418.47;;;265.43;;
16522;SDS011;19889;52.546;13.348;2022-10-16T04:48:00;414.47;;;246.53;;
16522;SDS011;19889;52.546;13.348;2022-10-16T04:50:27;419.47;;;245.63;;
16522;SDS011;19889;52.546;13.348;2022-10-16T04:53:04;415.77;;;238.43;;
16522;SDS011;19889;52.546;13.348;2022-10-16T04:55:30;417.77;;;228.37;;
16522;SDS011;19889;52.546;13.348;2022-10-16T04:57:57;419.20;;;256.00;;
16522;SDS011;19889;52.546;13.348;2022-10-16T05:00:24;419.63;;;267.50;;
16522;SDS011;19889;52.546;13.348;2022-10-16T05:02:51;411.83;;;226.93;;
16522;SDS011;19889;52.546;13.348;2022-10-16T05:05:19;418.23;;;255.57;;
16522;SDS011;19889;52.546;13.348;2022-10-16T05:07:46;412.90;;;218.33;;
16522;SDS011;19889;52.546;13.348;2022-10-16T05:10:13;415.67;;;238.50;;
16522;SDS011;19889;52.546;13.348;2022-10-16T05:12:39;418.63;;;248.97;;
16522;SDS011;19889;52.546;13.348;2022-10-16T05:15:06;418.33;;;252.73;;
16522;SDS011;19889;52.546;13.348;2022-10-16T05:17:34;419.80;;;240.83;;
16522;SDS011;19889;52.546;13.348;2022-10-16T05:20:01;414.97;;;229.10;;
16522;SDS011;19889;52.546;13.348;2022-10-16T05:22:29;422.47;;;241.93;;
16522;SDS011;19889;52.546;13.348;2022-10-16T05:24:56;417.07;;;235.47;;
16522;SDS011;19889;52.546;13.348;2022-10-16T05:27:23;414.40;;;239.63;;
16522;SDS011;19889;52.546;13.348;2022-10-16T05:29:50;419.10;;;251.53;;
16522;SDS011;19889;52.546;13.348;2022-10-16T05:32:17;421.20;;;264.20;;
16522;SDS011;19889;52.546;13.348;2022-10-16T05:34:44;417.13;;;236.90;;
16522;SDS011;19889;52.546;13.348;2022-10-16T05:37:12;418.50;;;243.30;;
16522;SDS011;19889;52.546;13.348;2022-10-16T05:39:40;414.70;;;234.90;;
16522;SDS011;19889;52.546;13.348;2022-10-16T05:42:07;412.43;;;238.47;;
16522;SDS011;19889;52.546;13.348;2022-10-16T05:44:34;419.30;;;243.23;;
16522;SDS011;19889;52.546;13.348;2022-10-16T05:47:00;414.40;;;232.07;;
16522;SDS011;19889;52.546;13.348;2022-10-16T05:49:27;414.50;;;236.63;;
16522;SDS011;19889;52.546;13.348;2022-10-16T05:51:54;416.37;;;237.53;;
16522;SDS011;19889;52.546;13.348;2022-10-16T05:54:20;418.57;;;241.17;;
16522;SDS011;19889;52.546;13.348;2022-10-16T05:56:49;414.53;;;239.47;;
16522;SDS011;19889;52.546;13.348;2022-10-16T05:59:15;417.70;;;234.93;;
16522;SDS011;19889;52.546;13.348;2022-10-16T06:01:42;412.53;;;227.03;;
16522;SDS011;19889;52.546;13.348;2022-10-16T06:04:09;420.60;;;236.17;;
16522;SDS011;19889;52.546;13.348;2022-10-16T06:06:35;411.93;;;220.40;;
16522;SDS011;19889;52.546;13.348;2022-10-16T06:09:03;415.03;;;237.97;;
16522;SDS011;19889;52.546;13.348;2022-10-16T06:11:31;424.87;;;249.30;;
16522;SDS011;19889;52.546;13.348;2022-10-16T06:14:00;418.67;;;240.70;;
16522;SDS011;19889;52.546;13.348;2022-10-16T06:16:31;412.03;;;224.67;;
16522;SDS011;19889;52.546;13.348;2022-10-16T06:18:59;413.33;;;236.30;;
16522;SDS011;19889;52.546;13.348;2022-10-16T06:21:26;415.37;;;236.80;;
16522;SDS011;19889;52.546;13.348;2022-10-16T06:23:55;427.30;;;251.13;;
16522;SDS011;19889;52.546;13.348;2022-10-16T06:26:24;414.17;;;228.03;;
16522;SDS011;19889;52.546;13.348;2022-10-16T06:28:53;416.50;;;239.57;;
16522;SDS011;19889;52.546;13.348;2022-10-16T06:31:21;417.47;;;235.30;;
16522;SDS011;19889;52.546;13.348;2022-10-16T06:33:52;431.60;;;258.77;;
16522;SDS011;19889;52.546;13.348;2022-10-16T06:36:20;422.13;;;255.07;;
16522;SDS011;19889;52.546;13.348;2022-10-16T06:38:47;416.67;;;247.07;;
16522;SDS011;19889;52.546;13.348;2022-10-16T06:41:15;411.97;;;219.77;;
16522;SDS011;19889;52.546;13.348;2022-10-16T06:43:43;422.80;;;247.20;;
16522;SDS011;19889;52.546;13.348;2022-10-16T06:46:11;417.53;;;244.67;;
16522;SDS011;19889;52.546;13.348;2022-10-16T06:48:40;421.27;;;254.67;;
16522;SDS011;19889;52.546;13.348;2022-10-16T06:51:09;416.63;;;245.00;;
16522;SDS011;19889;52.546;13.348;2022-10-16T06:53:37;417.20;;;246.40;;
16522;SDS011;19889;52.546;13.348;2022-10-16T06:56:08;410.77;;;233.20;;
16522;SDS011;19889;52.546;13.348;2022-10-16T06:58:36;413.50;;;230.23;;
16522;SDS011;19889;52.546;13.348;2022-10-16T07:01:03;417.63;;;252.60;;
16522;SDS011;19889;52.546;13.348;2022-10-16T07:03:30;415.67;;;234.23;;
16522;SDS011;19889;52.546;13.348;2022-10-16T07:06:02;419.50;;;241.10;;
16522;SDS011;19889;52.546;13.348;2022-10-16T07:08:30;416.20;;;242.57;;
16522;SDS011;19889;52.546;13.348;2022-10-16T07:10:59;411.50;;;245.23;;
16522;SDS011;19889;52.546;13.348;2022-10-16T07:13:26;415.03;;;236.20;;
16522;SDS011;19889;52.546;13.348;2022-10-16T07:15:53;430.13;;;253.67;;
16522;SDS011;19889;52.546;13.348;2022-10-16T07:18:20;418.37;;;244.10;;
16522;SDS011;19889;52.546;13.348;2022-10-16T07:20:51;412.83;;;233.00;;
16522;SDS011;19889;52.546;13.348;2022-10-16T07:23:19;421.90;;;243.43;;
16522;SDS011;19889;52.546;13.348;2022-10-16T07:25:52;416.50;;;238.07;;
16522;SDS011;19889;52.546;13.348;2022-10-16T07:28:20;422.13;;;237.57;;
16522;SDS011;19889;52.546;13.348;2022-10-16T07:30:47;418.73;;;250.83;;
16522;SDS011;19889;52.546;13.348;2022-10-16T07:33:14;414.43;;;239.90;;
16522;SDS011;19889;52.546;13.348;2022-10-16T07:35:47;416.33;;;248.03;;
16522;SDS011;19889;52.546;13.348;2022-10-16T07:38:14;425.13;;;251.70;;
16522;SDS011;19889;52.546;13.348;2022-10-16T07:40:42;417.43;;;243.07;;
16522;SDS011;19889;52.546;13.348;2022-10-16T07:43:09;422.00;;;254.07;;
16522;SDS011;19889;52.546;13.348;2022-10-16T07:45:36;418.93;;;243.47;;
16522;SDS011;19889;52.546;13.348;2022-10-16T07:48:03;417.33;;;252.67;;
16522;SDS011;19889;52.546;13.348;2022-10-16T07:50:30;416.23;;;244.80;;
16522;SDS011;19889;52.546;13.348;2022-10-16T07:52:57;416.83;;;254.93;;
16522;SDS011;19889;52.546;13.348;2022-10-16T07:55:23;420.57;;;248.20;;
16522;SDS011;19889;52.546;13.348;2022-10-16T07:57:51;412.40;;;232.80;;
16522;SDS011;19889;52.546;13.348;2022-10-16T08:00:18;425.03;;;273.67;;
16522;SDS011;19889;52.546;13.348;2022-10-16T08:02:45;417.30;;;258.93;;
16522;SDS011;19889;52.546;13.348;2022-10-16T08:05:12;419.03;;;263.57;;
16522;SDS011;19889;52.546;13.348;2022-10-16T08:07:39;420.87;;;253.20;;
16522;SDS011;19889;52.546;13.348;2022-10-16T08:10:06;415.80;;;248.67;;
16522;SDS011;19889;52.546;13.348;2022-10-16T08:12:46;418.67;;;262.27;;
16522;SDS011;19889;52.546;13.348;2022-10-16T08:15:14;420.63;;;258.57;;
16522;SDS011;19889;52.546;13.348;2022-10-16T08:17:41;414.37;;;247.50;;
16522;SDS011;19889;52.546;13.348;2022-10-16T08:20:08;427.70;;;276.30;;
16522;SDS011;19889;52.546;13.348;2022-10-16T08:22:36;417.07;;;241.97;;
16522;SDS011;19889;52.546;13.348;2022-10-16T08:25:03;419.97;;;264.63;;
16522;SDS011;19889;52.546;13.348;2022-10-16T08:27:30;419.40;;;267.80;;
16522;SDS011;19889;52.546;13.348;2022-10-16T08:29:57;420.37;;;268.77;;
16522;SDS011;19889;52.546;13.348;2022-10-16T08:32:25;421.70;;;265.17;;
16522;SDS011;19889;52.546;13.348;2022-10-16T08:34:52;419.10;;;269.23;;
16522;SDS011;19889;52.546;13.348;2022-10-16T08:37:19;419.37;;;251.83;;
16522;SDS011;19889;52.546;13.348;2022-10-16T08:39:46;416.83;;;259.17;;
16522;SDS011;19889;52.546;13.348;2022-10-16T08:42:19;417.67;;;255.30;;
16522;SDS011;19889;52.546;13.348;2022-10-16T08:45:15;426.93;;;274.43;;
16522;SDS011;19889;52.546;13.348;2022-10-16T08:48:10;427.03;;;279.17;;
16522;SDS011;19889;52.546;13.348;2022-10-16T08:50:46;424.30;;;263.80;;
16522;SDS011;19889;52.546;13.348;2022-10-16T08:53:15;423.00;;;258.53;;
16522;SDS011;19889;52.546;13.348;2022-10-16T08:55:45;422.37;;;271.30;;
16522;SDS011;19889;52.546;13.348;2022-10-16T08:58:16;422.10;;;271.27;;
16522;SDS011;19889;52.546;13.348;2022-10-16T09:00:45;429.73;;;286.43;;
16522;SDS011;19889;52.546;13.348;2022-10-16T09:03:20;424.13;;;265.37;;
16522;SDS011;19889;52.546;13.348;2022-10-16T09:06:12;426.13;;;260.73;;
16522;SDS011;19889;52.546;13.348;2022-10-16T09:08:51;418.23;;;249.80;;
16522;SDS011;19889;52.546;13.348;2022-10-16T09:11:31;419.30;;;260.40;;
16522;SDS011;19889;52.546;13.348;2022-10-16T09:14:07;424.60;;;269.80;;
16522;SDS011;19889;52.546;13.348;2022-10-16T09:16:51;429.97;;;265.33;;
16522;SDS011;19889;52.546;13.348;2022-10-16T09:19:24;423.60;;;282.00;;
16522;SDS011;19889;52.546;13.348;2022-10-16T09:21:55;422.47;;;278.00;;
16522;SDS011;19889;52.546;13.348;2022-10-16T09:24:23;424.23;;;290.27;;
16522;SDS011;19889;52.546;13.348;2022-10-16T09:26:52;425.07;;;281.73;;
16522;SDS011;19889;52.546;13.348;2022-10-16T09:29:20;429.47;;;291.97;;
16522;SDS011;19889;52.546;13.348;2022-10-16T09:31:50;418.13;;;277.87;;
16522;SDS011;19889;52.546;13.348;2022-10-16T09:34:19;431.47;;;283.17;;
16522;SDS011;19889;52.546;13.348;2022-10-16T09:36:53;420.33;;;276.93;;
16522;SDS011;19889;52.546;13.348;2022-10-16T09:39:22;416.97;;;264.23;;
16522;SDS011;19889;52.546;13.348;2022-10-16T09:41:49;417.03;;;259.70;;
16522;SDS011;19889;52.546;13.348;2022-10-16T09:44:18;428.87;;;289.07;;
16522;SDS011;19889;52.546;13.348;2022-10-16T09:46:48;423.73;;;268.63;;
16522;SDS011;19889;52.546;13.348;2022-10-16T09:49:20;424.77;;;280.80;;
16522;SDS011;19889;52.546;13.348;2022-10-16T09:51:48;418.53;;;266.50;;
16522;SDS011;19889;52.546;13.348;2022-10-16T09:54:17;429.37;;;299.67;;
16522;SDS011;19889;52.546;13.348;2022-10-16T09:56:46;427.90;;;291.63;;
16522;SDS011;19889;52.546;13.348;2022-10-16T09:59:17;424.00;;;283.73;;
16522;SDS011;19889;52.546;13.348;2022-10-16T10:01:45;425.80;;;294.07;;
16522;SDS011;19889;52.546;13.348;2022-10-16T10:04:14;423.37;;;264.03;;
16522;SDS011;19889;52.546;13.348;2022-10-16T10:06:41;424.60;;;283.43;;
16522;SDS011;19889;52.546;13.348;2022-10-16T10:09:17;423.13;;;272.00;;
16522;SDS011;19889;52.546;13.348;2022-10-16T10:11:47;422.40;;;282.47;;
16522;SDS011;19889;52.546;13.348;2022-10-16T10:14:20;421.73;;;278.47;;
16522;SDS011;19889;52.546;13.348;2022-10-16T10:16:49;426.20;;;298.63;;
16522;SDS011;19889;52.546;13.348;2022-10-16T10:19:18;423.03;;;283.57;;
16522;SDS011;19889;52.546;13.348;2022-10-16T10:21:47;425.10;;;286.30;;
16522;SDS011;19889;52.546;13.348;2022-10-16T10:24:15;426.77;;;292.40;;
16522;SDS011;19889;52.546;13.348;2022-10-16T10:26:49;426.03;;;293.30;;
16522;SDS011;19889;52.546;13.348;2022-10-16T10:29:23;428.50;;;287.57;;
16522;SDS011;19889;52.546;13.348;2022-10-16T10:32:08;430.47;;;299.00;;
16522;SDS011;19889;52.546;13.348;2022-10-16T10:34:47;422.33;;;285.03;;
16522;SDS011;19889;52.546;13.348;2022-10-16T10:37:31;423.53;;;278.20;;
16522;SDS011;19889;52.546;13.348;2022-10-16T10:40:11;424.27;;;275.77;;
16522;SDS011;19889;52.546;13.348;2022-10-16T10:42:44;430.47;;;289.50;;
16522;SDS011;19889;52.546;13.348;2022-10-16T10:45:18;430.67;;;300.77;;
16522;SDS011;19889;52.546;13.348;2022-10-16T10:48:02;434.80;;;307.20;;
16522;SDS011;19889;52.546;13.348;2022-10-16T10:50:46;425.10;;;302.77;;
16522;SDS011;19889;52.546;13.348;2022-10-16T10:53:21;422.80;;;280.57;;
16522;SDS011;19889;52.546;13.348;2022-10-16T10:56:02;424.90;;;295.30;;
16522;SDS011;19889;52.546;13.348;2022-10-16T10:58:49;441.90;;;311.90;;
16522;SDS011;19889;52.546;13.348;2022-10-16T11:01:30;437.07;;;325.27;;
16522;SDS011;19889;52.546;13.348;2022-10-16T11:04:10;432.27;;;301.13;;
16522;SDS011;19889;52.546;13.348;2022-10-16T11:06:55;429.20;;;299.33;;
16522;SDS011;19889;52.546;13.348;2022-10-16T11:09:25;430.80;;;292.93;;
16522;SDS011;19889;52.546;13.348;2022-10-16T11:11:58;430.80;;;302.87;;
16522;SDS011;19889;52.546;13.348;2022-10-16T11:14:31;430.67;;;316.33;;
16522;SDS011;19889;52.546;13.348;2022-10-16T11:17:07;427.63;;;302.53;;
16522;SDS011;19889;52.546;13.348;2022-10-16T11:19:39;426.90;;;294.20;;
16522;SDS011;19889;52.546;13.348;2022-10-16T11:22:11;427.20;;;298.27;;
16522;SDS011;19889;52.546;13.348;2022-10-16T11:24:42;430.53;;;310.67;;
16522;SDS011;19889;52.546;13.348;2022-10-16T11:27:15;431.07;;;309.63;;
16522;SDS011;19889;52.546;13.348;2022-10-16T11:29:48;423.07;;;283.17;;
16522;SDS011;19889;52.546;13.348;2022-10-16T11:32:21;429.00;;;293.87;;
16522;SDS011;19889;52.546;13.348;2022-10-16T11:34:52;435.83;;;331.83;;
16522;SDS011;19889;52.546;13.348;2022-10-16T11:37:23;424.93;;;290.83;;
16522;SDS011;19889;52.546;13.348;2022-10-16T11:39:57;435.87;;;315.00;;
16522;SDS011;19889;52.546;13.348;2022-10-16T11:42:32;428.90;;;302.37;;
16522;SDS011;19889;52.546;13.348;2022-10-16T11:45:07;433.93;;;319.77;;
16522;SDS011;19889;52.546;13.348;2022-10-16T11:47:44;433.03;;;305.87;;
16522;SDS011;19889;52.546;13.348;2022-10-16T11:50:17;427.87;;;310.73;;
16522;SDS011;19889;52.546;13.348;2022-10-16T11:52:50;430.73;;;313.33;;
16522;SDS011;19889;52.546;13.348;2022-10-16T11:55:20;437.13;;;324.90;;
16522;SDS011;19889;52.546;13.348;2022-10-16T11:57:51;430.07;;;305.87;;
16522;SDS011;19889;52.546;13.348;2022-10-16T12:00:21;429.10;;;301.47;;
16522;SDS011;19889;52.546;13.348;2022-10-16T12:02:53;425.43;;;291.20;;
16522;SDS011;19889;52.546;13.348;2022-10-16T12:05:33;424.93;;;290.17;;
16522;SDS011;19889;52.546;13.348;2022-10-16T12:08:13;423.17;;;311.17;;
16522;SDS011;19889;52.546;13.348;2022-10-16T12:10:41;426.87;;;314.57;;
16522;SDS011;19889;52.546;13.348;2022-10-16T12:16:16;430.50;;;302.17;;
16522;SDS011;19889;52.546;13.348;2022-10-16T12:18:48;433.33;;;322.17;;
16522;SDS011;19889;52.546;13.348;2022-10-16T12:21:15;427.40;;;304.80;;
16522;SDS011;19889;52.546;13.348;2022-10-16T12:23:47;440.43;;;322.90;;
16522;SDS011;19889;52.546;13.348;2022-10-16T12:26:23;428.23;;;306.27;;
16522;SDS011;19889;52.546;13.348;2022-10-16T12:28:52;426.93;;;311.03;;
16522;SDS011;19889;52.546;13.348;2022-10-16T12:31:19;435.63;;;318.20;;
16522;SDS011;19889;52.546;13.348;2022-10-16T12:33:55;441.77;;;333.60;;
16522;SDS011;19889;52.546;13.348;2022-10-16T12:36:28;425.37;;;316.90;;
16522;SDS011;19889;52.546;13.348;2022-10-16T12:38:57;427.80;;;302.93;;
16522;SDS011;19889;52.546;13.348;2022-10-16T12:41:26;427.33;;;300.73;;
16522;SDS011;19889;52.546;13.348;2022-10-16T12:43:56;435.27;;;317.13;;
16522;SDS011;19889;52.546;13.348;2022-10-16T12:46:33;427.53;;;291.10;;
16522;SDS011;19889;52.546;13.348;2022-10-16T12:51:55;434.13;;;314.77;;
16522;SDS011;19889;52.546;13.348;2022-10-16T12:54:22;426.57;;;304.63;;
16522;SDS011;19889;52.546;13.348;2022-10-16T12:56:58;433.47;;;311.87;;
16522;SDS011;19889;52.546;13.348;2022-10-16T12:59:46;438.03;;;324.37;;
16522;SDS011;19889;52.546;13.348;2022-10-16T13:05:19;433.53;;;315.60;;
16522;SDS011;19889;52.546;13.348;2022-10-16T13:07:58;435.17;;;309.50;;
16522;SDS011;19889;52.546;13.348;2022-10-16T13:10:39;428.30;;;310.83;;
16522;SDS011;19889;52.546;13.348;2022-10-16T13:13:13;427.13;;;299.23;;
16522;SDS011;19889;52.546;13.348;2022-10-16T13:15:58;431.07;;;320.97;;
16522;SDS011;19889;52.546;13.348;2022-10-16T13:18:36;425.63;;;303.03;;
16522;SDS011;19889;52.546;13.348;2022-10-16T13:21:12;424.03;;;303.20;;
16522;SDS011;19889;52.546;13.348;2022-10-16T13:23:50;431.07;;;316.87;;
16522;SDS011;19889;52.546;13.348;2022-10-16T13:26:24;427.57;;;311.57;;
16522;SDS011;19889;52.546;13.348;2022-10-16T13:28:58;429.87;;;305.50;;
16522;SDS011;19889;52.546;13.348;2022-10-16T13:31:27;428.50;;;321.77;;
16522;SDS011;19889;52.546;13.348;2022-10-16T13:33:56;433.47;;;325.67;;
16522;SDS011;19889;52.546;13.348;2022-10-16T13:36:25;434.13;;;333.40;;
16522;SDS011;19889;52.546;13.348;2022-10-16T13:41:43;431.90;;;331.13;;
16522;SDS011;19889;52.546;13.348;2022-10-16T13:44:12;434.97;;;322.33;;
16522;SDS011;19889;52.546;13.348;2022-10-16T13:46:44;439.50;;;332.07;;
16522;SDS011;19889;52.546;13.348;2022-10-16T13:49:12;429.27;;;299.73;;
16522;SDS011;19889;52.546;13.348;2022-10-16T13:51:39;430.33;;;315.00;;
16522;SDS011;19889;52.546;13.348;2022-10-16T13:54:07;423.83;;;299.27;;
16522;SDS011;19889;52.546;13.348;2022-10-16T13:56:35;429.50;;;305.13;;
16522;SDS011;19889;52.546;13.348;2022-10-16T13:59:05;425.23;;;304.70;;
16522;SDS011;19889;52.546;13.348;2022-10-16T14:01:33;441.63;;;323.10;;
16522;SDS011;19889;52.546;13.348;2022-10-16T14:04:08;429.67;;;308.97;;
16522;SDS011;19889;52.546;13.348;2022-10-16T14:06:40;424.63;;;296.00;;
16522;SDS011;19889;52.546;13.348;2022-10-16T14:09:08;431.97;;;315.63;;
16522;SDS011;19889;52.546;13.348;2022-10-16T14:11:44;426.83;;;326.10;;
16522;SDS011;19889;52.546;13.348;2022-10-16T14:14:13;430.33;;;309.77;;
16522;SDS011;19889;52.546;13.348;2022-10-16T14:16:41;431.60;;;322.27;;